Time;durP1;ratioP1;P1;durP2;ratioP2;P2;SDS_P1;SDS_P2;PMS_P1;PMS_P2;Temp;Humidity;BMP_temperature;BMP_pressure;BME280_temperature;BME280_humidity;BME280_pressure;Samples;Min_cycle;Max_cycle;Signal;HPM_P1;HPM_P2
2022/06/25 00:01:08;;;;;;;11.77;4.88;;;15.50;85.60;;;;;;5091897;28;20019;-75
2022/06/25 00:03:35;;;;;;;14.40;4.55;;;15.50;85.70;;;;;;5105461;27;20100;-74
2022/06/25 00:06:01;;;;;;;8.57;3.80;;;15.50;85.50;;;;;;5087940;28;20038;-75
2022/06/25 00:08:28;;;;;;;16.23;3.78;;;15.50;85.60;;;;;;5105665;27;20076;-73
2022/06/25 00:10:55;;;;;;;7.13;4.13;;;15.50;85.60;;;;;;5106147;28;20031;-73
2022/06/25 00:13:22;;;;;;;12.23;3.75;;;15.50;85.60;;;;;;5087272;28;20024;-73
2022/06/25 00:15:49;;;;;;;10.13;3.75;;;15.50;85.60;;;;;;5109894;28;20020;-72
2022/06/25 00:18:15;;;;;;;9.73;3.88;;;15.40;85.60;;;;;;5086989;28;20100;-73
2022/06/25 00:20:44;;;;;;;12.98;4.25;;;15.40;85.50;;;;;;5102687;28;20528;-74
2022/06/25 00:23:11;;;;;;;12.52;3.00;;;15.40;86.20;;;;;;5101170;28;20020;-72
2022/06/25 00:25:37;;;;;;;16.25;2.90;;;15.40;85.60;;;;;;5092224;28;20084;-74
2022/06/25 00:28:04;;;;;;;18.45;3.35;;;15.50;86.20;;;;;;5111040;28;20023;-73
2022/06/25 00:30:31;;;;;;;11.05;3.88;;;15.50;86.20;;;;;;5097445;28;20050;-75
2022/06/25 00:32:58;;;;;;;16.17;3.97;;;15.50;86.60;;;;;;5107353;28;20019;-76
2022/06/25 00:35:25;;;;;;;16.85;3.65;;;15.50;86.80;;;;;;5099341;28;20027;-73
2022/06/25 00:37:52;;;;;;;8.55;3.00;;;15.50;86.80;;;;;;5106193;28;20486;-73
2022/06/25 00:40:19;;;;;;;13.05;4.13;;;15.50;87.00;;;;;;5102957;27;20020;-74
2022/06/25 00:42:47;;;;;;;17.60;3.30;;;15.50;86.90;;;;;;5108293;27;20024;-74
2022/06/25 00:45:13;;;;;;;16.42;4.93;;;15.50;87.00;;;;;;5106488;27;20355;-74
2022/06/25 00:47:40;;;;;;;11.98;3.38;;;15.50;87.10;;;;;;5106421;27;20020;-73
2022/06/25 00:50:08;;;;;;;17.38;4.43;;;15.50;87.00;;;;;;5098429;28;20516;-73
2022/06/25 00:52:35;;;;;;;17.45;3.78;;;15.50;86.90;;;;;;5103653;27;20055;-75
2022/06/25 00:55:10;;;;;;;11.35;3.05;;;15.50;86.70;;;;;;5111236;27;20462;-73
2022/06/25 00:57:41;;;;;;;9.93;3.97;;;15.50;86.70;;;;;;5109169;27;20106;-75
2022/06/25 01:00:17;;;;;;;9.00;3.10;;;15.40;86.60;;;;;;5111139;27;20031;-74
2022/06/25 01:02:45;;;;;;;9.65;3.33;;;15.40;86.50;;;;;;5108795;27;20098;-74
2022/06/25 01:05:14;;;;;;;11.63;3.75;;;15.40;86.50;;;;;;5107530;27;20008;-76
2022/06/25 01:07:44;;;;;;;8.18;3.83;;;15.40;86.50;;;;;;5108498;27;20016;-74
2022/06/25 01:10:13;;;;;;;14.18;3.97;;;15.40;86.50;;;;;;5108127;27;20032;-74
2022/06/25 01:12:40;;;;;;;9.50;4.20;;;15.40;86.40;;;;;;5111126;27;20602;-73
2022/06/25 01:15:16;;;;;;;13.07;4.45;;;15.30;86.40;;;;;;5104599;27;20038;-76
2022/06/25 01:17:50;;;;;;;11.23;4.93;;;15.30;86.40;;;;;;5093711;27;20508;-74
2022/06/25 01:20:23;;;;;;;16.63;4.75;;;15.30;86.30;;;;;;5105814;27;20019;-74
2022/06/25 01:22:50;;;;;;;11.20;4.78;;;15.30;86.30;;;;;;5105160;27;20031;-75
2022/06/25 01:25:16;;;;;;;12.45;4.30;;;15.30;86.30;;;;;;5093638;28;20164;-76
2022/06/25 01:27:44;;;;;;;13.73;4.53;;;15.20;86.30;;;;;;5108897;27;20107;-74
2022/06/25 01:30:12;;;;;;;13.10;4.43;;;15.30;86.30;;;;;;5104735;27;20039;-74
2022/06/25 01:32:39;;;;;;;9.30;4.28;;;15.20;86.30;;;;;;5104363;27;20051;-75
2022/06/25 01:35:08;;;;;;;18.73;4.72;;;15.30;86.30;;;;;;5110556;27;20039;-74
2022/06/25 01:37:36;;;;;;;11.05;4.78;;;15.20;86.30;;;;;;5095350;27;20036;-73
2022/06/25 01:40:03;;;;;;;10.50;4.18;;;15.20;86.20;;;;;;5098358;27;20020;-74
2022/06/25 01:45:14;;;;;;;14.85;4.65;;;15.20;86.30;;;;;;5106251;27;20039;-74
2022/06/25 01:47:40;;;;;;;14.95;4.57;;;15.20;86.30;;;;;;5089017;28;20367;-76
2022/06/25 01:50:08;;;;;;;14.10;4.25;;;15.20;86.30;;;;;;5107574;27;20027;-75
2022/06/25 01:52:35;;;;;;;11.50;3.30;;;15.20;86.40;;;;;;5101576;27;20050;-73
2022/06/25 01:55:03;;;;;;;12.90;3.92;;;15.20;86.40;;;;;;5110566;27;20016;-73
2022/06/25 01:57:29;;;;;;;11.63;3.47;;;15.20;86.40;;;;;;5109307;27;20032;-74
2022/06/25 01:59:56;;;;;;;11.18;4.38;;;15.20;86.50;;;;;;5111119;27;20016;-73
2022/06/25 02:02:22;;;;;;;12.57;3.40;;;15.20;86.60;;;;;;5081190;28;20375;-74
2022/06/25 02:04:49;;;;;;;11.43;3.40;;;15.20;86.50;;;;;;5109755;27;20027;-73
2022/06/25 02:07:15;;;;;;;11.15;4.00;;;15.20;86.30;;;;;;5110555;27;20020;-75
2022/06/25 02:09:42;;;;;;;7.90;3.40;;;15.20;86.20;;;;;;5103476;27;20024;-73
2022/06/25 02:12:09;;;;;;;8.07;3.63;;;15.10;86.00;;;;;;5103624;28;20020;-73
2022/06/25 02:14:35;;;;;;;8.55;3.33;;;15.10;86.00;;;;;;5106945;27;20031;-74
2022/06/25 02:17:02;;;;;;;11.73;3.88;;;15.10;86.00;;;;;;5106969;27;20355;-74
2022/06/25 02:19:28;;;;;;;11.68;3.13;;;15.10;85.90;;;;;;5105223;27;20020;-73
2022/06/25 02:21:55;;;;;;;6.15;3.38;;;15.20;85.90;;;;;;5106182;27;20034;-73
2022/06/25 02:24:21;;;;;;;8.07;2.55;;;15.20;86.00;;;;;;5106125;27;20362;-74
2022/06/25 02:26:48;;;;;;;6.78;3.10;;;15.20;85.80;;;;;;5111304;27;20031;-74
2022/06/25 02:29:14;;;;;;;10.10;3.50;;;15.10;85.70;;;;;;5106398;27;20038;-73
2022/06/25 02:31:41;;;;;;;14.73;3.95;;;15.10;85.60;;;;;;5107603;27;20031;-74
2022/06/25 02:34:07;;;;;;;10.43;4.95;;;15.10;85.60;;;;;;5103164;27;20016;-73
2022/06/25 02:36:34;;;;;;;11.65;3.63;;;15.10;85.50;;;;;;5106056;27;20015;-74
2022/06/25 02:39:00;;;;;;;11.07;3.83;;;15.10;85.60;;;;;;5103767;27;20426;-74
2022/06/25 02:41:27;;;;;;;14.73;3.47;;;15.10;85.40;;;;;;5102788;27;20402;-75
2022/06/25 02:43:53;;;;;;;12.05;3.33;;;15.10;85.30;;;;;;5108158;27;20027;-73
2022/06/25 02:46:20;;;;;;;8.63;2.95;;;15.10;85.40;;;;;;5107376;27;20069;-73
2022/06/25 02:48:46;;;;;;;10.23;3.13;;;15.10;85.30;;;;;;5103165;27;20020;-73
2022/06/25 02:51:13;;;;;;;12.35;3.72;;;15.00;85.30;;;;;;5107725;27;20020;-73
2022/06/25 02:53:39;;;;;;;10.55;3.10;;;15.00;85.30;;;;;;5104954;27;20498;-73
2022/06/25 02:58:54;;;;;;;41.47;24.40;;;15.00;85.60;;;;;;5101917;27;20051;-72
2022/06/25 03:01:22;;;;;;;36.28;21.92;;;15.10;86.30;;;;;;5085244;28;20391;-73
2022/06/25 03:03:48;;;;;;;29.80;14.70;;;15.10;86.50;;;;;;5102006;27;20527;-73
2022/06/25 03:06:15;;;;;;;24.70;7.43;;;15.10;87.20;;;;;;5103090;27;20054;-72
2022/06/25 03:08:42;;;;;;;20.35;5.90;;;15.10;86.30;;;;;;5090094;27;20573;-74
2022/06/25 03:11:08;;;;;;;7.07;3.65;;;15.10;86.40;;;;;;5108454;27;20488;-73
2022/06/25 03:13:36;;;;;;;11.80;3.28;;;15.10;86.60;;;;;;5099786;27;20078;-73
2022/06/25 03:16:05;;;;;;;14.07;3.65;;;15.10;86.50;;;;;;5104964;27;20062;-72
2022/06/25 03:18:32;;;;;;;13.95;3.03;;;15.10;86.50;;;;;;5103392;28;20030;-72
2022/06/25 03:20:58;;;;;;;12.93;3.63;;;15.10;86.30;;;;;;5099897;27;20430;-75
2022/06/25 03:24:04;;;;;;;9.88;3.85;;;15.00;85.60;;;;;;5105617;27;20020;-73
2022/06/25 03:26:31;;;;;;;15.82;3.75;;;15.00;85.10;;;;;;5103303;27;20106;-75
2022/06/25 03:28:58;;;;;;;13.85;3.15;;;15.00;84.80;;;;;;5106389;27;20027;-74
2022/06/25 03:31:25;;;;;;;24.90;13.10;;;14.90;84.30;;;;;;5106929;27;20110;-72
2022/06/25 03:33:51;;;;;;;33.10;21.63;;;14.90;84.40;;;;;;5100746;27;20020;-73
2022/06/25 03:36:18;;;;;;;24.38;12.45;;;14.90;85.00;;;;;;5104089;27;20023;-73
2022/06/25 03:38:44;;;;;;;20.30;8.35;;;14.90;84.80;;;;;;5104655;27;20024;-73
2022/06/25 03:43:56;;;;;;;9.68;3.75;;;14.80;84.80;;;;;;5104502;27;20156;-74
2022/06/25 03:46:22;;;;;;;14.45;4.07;;;14.80;84.80;;;;;;5103357;27;20375;-73
2022/06/25 03:48:49;;;;;;;10.10;3.00;;;14.80;84.90;;;;;;5101169;27;20031;-73
2022/06/25 03:51:15;;;;;;;8.00;3.40;;;14.80;85.10;;;;;;5099744;27;20043;-73
2022/06/25 03:53:42;;;;;;;12.35;3.45;;;14.80;85.30;;;;;;5106997;27;20438;-74
2022/06/25 03:56:08;;;;;;;9.90;2.80;;;14.80;85.40;;;;;;5103570;27;20020;-73
2022/06/25 03:58:35;;;;;;;13.10;2.95;;;14.80;85.40;;;;;;5107257;28;20030;-73
2022/06/25 04:01:03;;;;;;;13.13;2.97;;;14.70;85.40;;;;;;5109065;27;20034;-73
2022/06/25 04:03:30;;;;;;;5.93;2.67;;;14.70;85.50;;;;;;5111452;27;20019;-72
2022/06/25 04:05:57;;;;;;;11.02;3.67;;;14.70;85.60;;;;;;5105315;27;20047;-73
2022/06/25 04:08:24;;;;;;;13.57;3.08;;;14.70;85.70;;;;;;5105864;27;20024;-75
2022/06/25 04:10:51;;;;;;;11.88;3.70;;;14.70;85.70;;;;;;5104699;28;20088;-72
2022/06/25 04:13:17;;;;;;;14.00;3.25;;;14.70;85.70;;;;;;5106125;28;20048;-73
2022/06/25 04:15:44;;;;;;;7.15;2.90;;;14.70;85.60;;;;;;5105410;28;20020;-71
2022/06/25 04:18:10;;;;;;;4.70;2.30;;;14.80;85.60;;;;;;5104419;28;20046;-71
2022/06/25 06:25:11;;;;;;;;;;;14.10;89.80;;;;;;5045074;27;20856;-71
2022/06/25 06:27:38;;;;;;;20.85;10.23;;;14.30;90.00;;;;;;5027857;28;21682;-71
2022/06/25 06:30:05;;;;;;;12.75;6.35;;;14.30;89.90;;;;;;5029140;28;20022;-70
2022/06/25 06:32:32;;;;;;;10.43;5.07;;;14.30;89.70;;;;;;5034456;28;20034;-72
2022/06/25 06:34:58;;;;;;;8.65;3.08;;;14.40;89.60;;;;;;5029702;28;20030;-71
2022/06/25 06:37:25;;;;;;;12.10;2.88;;;14.40;89.30;;;;;;5027091;28;20480;-71
2022/06/25 06:39:52;;;;;;;10.00;3.53;;;14.40;88.60;;;;;;5027686;28;20024;-72
2022/06/25 06:49:03;;;;;;;12.75;3.47;;;14.30;88.20;;;;;;5023945;28;20111;-72
2022/06/25 06:51:30;;;;;;;15.88;3.65;;;14.20;88.70;;;;;;5027596;28;20033;-72
2022/06/25 06:53:56;;;;;;;9.52;2.92;;;14.20;89.00;;;;;;5029245;28;20083;-75
2022/06/25 06:56:23;;;;;;;23.33;10.48;;;14.20;89.20;;;;;;5026869;28;20400;-71
2022/06/25 06:58:49;;;;;;;28.38;16.50;;;14.30;89.60;;;;;;5025695;28;20022;-73
2022/06/25 07:01:15;;;;;;;20.27;12.45;;;14.30;89.70;;;;;;5027371;28;20476;-70
2022/06/25 07:03:42;;;;;;;14.52;7.57;;;14.30;89.70;;;;;;5027017;28;20037;-76
2022/06/25 07:06:08;;;;;;;7.47;4.85;;;14.40;89.70;;;;;;5028371;28;20427;-72
2022/06/25 07:08:35;;;;;;;10.05;4.90;;;14.40;89.60;;;;;;5029631;28;20026;-73
2022/06/25 07:11:01;;;;;;;19.48;4.50;;;14.40;89.50;;;;;;5023889;28;20541;-73
2022/06/25 07:13:28;;;;;;;20.33;5.53;;;14.40;89.50;;;;;;5028888;28;20495;-75
2022/06/25 07:15:58;;;;;;;25.98;8.98;;;14.50;89.50;;;;;;5029515;28;20113;-76
2022/06/25 07:18:25;;;;;;;50.60;16.35;;;14.50;89.40;;;;;;5025870;28;20037;-72
2022/06/25 07:20:51;;;;;;;187.15;35.63;;;14.50;89.50;;;;;;5030401;28;20027;-71
2022/06/25 07:23:18;;;;;;;122.85;29.30;;;14.50;89.50;;;;;;5028033;28;20129;-71
2022/06/25 07:25:44;;;;;;;103.15;23.13;;;14.50;89.60;;;;;;5014709;28;20030;-71
2022/06/25 07:28:11;;;;;;;48.47;9.95;;;14.60;89.80;;;;;;5022134;28;20087;-73
2022/06/25 07:30:37;;;;;;;26.27;5.43;;;14.60;90.30;;;;;;5018439;28;20105;-71
2022/06/25 07:33:04;;;;;;;42.60;22.00;;;14.80;91.10;;;;;;5017386;28;20025;-70
2022/06/25 07:35:30;;;;;;;19.83;4.68;;;14.90;91.00;;;;;;5014157;28;20028;-71
2022/06/25 07:37:57;;;;;;;14.00;4.05;;;14.90;90.70;;;;;;5017953;28;20451;-69
2022/06/25 07:40:24;;;;;;;15.82;3.35;;;14.90;90.40;;;;;;5015331;28;20029;-69
2022/06/25 07:42:51;;;;;;;22.17;3.50;;;14.90;90.60;;;;;;5015537;28;20469;-71
2022/06/25 07:45:17;;;;;;;17.08;4.60;;;14.90;90.40;;;;;;5015908;28;20022;-69
2022/06/25 07:47:44;;;;;;;8.02;2.92;;;14.90;90.40;;;;;;5014045;28;20014;-69
2022/06/25 07:52:55;;;;;;;24.67;3.55;;;14.90;90.20;;;;;;5011102;28;20389;-67
2022/06/25 07:55:22;;;;;;;16.33;3.85;;;14.90;90.40;;;;;;5019908;28;20030;-67
2022/06/25 07:57:48;;;;;;;21.65;4.65;;;14.90;90.50;;;;;;5017841;28;20022;-67
2022/06/25 08:00:15;;;;;;;15.52;4.32;;;14.90;90.50;;;;;;5013363;28;20036;-67
2022/06/25 08:02:41;;;;;;;18.92;5.05;;;15.00;90.60;;;;;;5014815;28;20032;-67
2022/06/25 08:05:08;;;;;;;25.30;5.85;;;15.00;90.60;;;;;;5012424;28;20017;-68
2022/06/25 08:07:34;;;;;;;11.90;5.13;;;15.00;90.60;;;;;;5014121;28;20025;-70
2022/06/25 08:10:01;;;;;;;19.85;7.97;;;15.00;90.60;;;;;;5010849;28;20014;-68
2022/06/25 08:12:27;;;;;;;18.45;6.90;;;15.00;90.70;;;;;;5015495;28;20435;-68
2022/06/25 08:14:54;;;;;;;28.88;8.63;;;15.00;90.80;;;;;;5020188;28;20034;-69
2022/06/25 08:17:20;;;;;;;17.63;10.10;;;15.00;90.80;;;;;;5011658;28;20029;-69
2022/06/25 08:19:47;;;;;;;36.50;12.00;;;15.10;90.80;;;;;;5016103;28;20073;-71
2022/06/25 08:22:14;;;;;;;26.38;10.45;;;15.10;90.90;;;;;;5014516;28;20030;-68
2022/06/25 08:24:40;;;;;;;22.60;9.40;;;15.10;90.80;;;;;;5014438;28;20085;-69
2022/06/25 08:27:07;;;;;;;20.70;8.50;;;15.10;90.80;;;;;;5012307;28;20388;-68
2022/06/25 08:29:33;;;;;;;16.35;7.63;;;15.20;90.80;;;;;;5013491;28;20029;-68
2022/06/25 08:32:00;;;;;;;30.92;11.55;;;15.20;90.80;;;;;;5020836;28;20059;-68
2022/06/25 08:34:26;;;;;;;18.25;11.52;;;15.20;90.80;;;;;;5017620;28;20038;-70
2022/06/25 08:36:53;;;;;;;18.52;10.18;;;15.20;90.80;;;;;;5012718;28;20425;-68
2022/06/25 08:39:19;;;;;;;17.95;11.20;;;15.30;90.80;;;;;;5016360;28;20018;-69
2022/06/25 08:41:46;;;;;;;18.63;7.95;;;15.30;90.80;;;;;;5015959;28;20029;-71
2022/06/25 08:44:12;;;;;;;18.83;8.00;;;15.30;90.70;;;;;;5012033;28;20574;-69
2022/06/25 08:46:39;;;;;;;17.25;6.72;;;15.30;90.70;;;;;;5017384;28;20044;-69
2022/06/25 08:49:07;;;;;;;20.67;7.55;;;15.40;90.70;;;;;;5014226;28;20022;-68
2022/06/25 08:51:35;;;;;;;12.27;7.30;;;15.40;90.70;;;;;;5018001;28;20029;-68
2022/06/25 08:54:02;;;;;;;11.40;5.85;;;15.40;90.70;;;;;;5011410;28;20021;-68
2022/06/25 08:56:29;;;;;;;10.40;5.35;;;15.40;90.70;;;;;;5013467;28;20074;-69
2022/06/25 08:58:56;;;;;;;10.30;4.50;;;15.50;90.70;;;;;;5015552;28;20024;-67
2022/06/25 09:01:22;;;;;;;11.52;4.15;;;15.50;90.60;;;;;;5014096;28;20038;-68
2022/06/25 09:03:49;;;;;;;7.80;4.00;;;15.50;90.60;;;;;;5014672;28;20026;-69
2022/06/25 09:06:17;;;;;;;13.38;5.15;;;15.60;90.60;;;;;;5014114;28;20029;-68
2022/06/25 09:08:45;;;;;;;40.00;16.58;;;15.60;90.60;;;;;;5012327;28;20543;-68
2022/06/25 09:11:12;;;;;;;33.90;13.68;;;15.70;90.70;;;;;;5011069;28;20029;-69
2022/06/25 09:13:38;;;;;;;29.25;10.40;;;15.70;90.70;;;;;;5012156;28;20034;-68
2022/06/25 09:16:05;;;;;;;13.68;7.88;;;15.80;90.70;;;;;;5009371;28;20049;-69
2022/06/25 09:18:34;;;;;;;14.52;6.90;;;15.80;90.70;;;;;;5016765;28;20499;-69
2022/06/25 09:21:07;;;;;;;8.38;4.88;;;15.90;90.70;;;;;;5009654;28;20563;-68
2022/06/25 09:23:53;;;;;;;14.13;3.45;;;15.90;90.90;;;;;;5008766;28;20095;-69
2022/06/25 09:26:19;;;;;;;;;;;16.00;90.50;;;;;;5013815;28;20034;-68
2022/06/25 09:28:46;;;;;;;12.35;2.55;;;16.00;90.20;;;;;;5012662;28;19964;-69
2022/06/25 09:31:13;;;;;;;10.75;3.15;;;16.10;90.20;;;;;;5016360;28;20444;-67
2022/06/25 09:33:40;;;;;;;14.48;2.30;;;16.10;90.10;;;;;;5016755;28;20133;-69
2022/06/25 09:36:09;;;;;;;12.32;2.53;;;16.10;89.60;;;;;;5011360;28;20030;-69
2022/06/25 09:38:48;;;;;;;8.77;2.03;;;16.10;89.10;;;;;;5013179;28;20057;-70
2022/06/25 09:41:14;;;;;;;7.70;2.08;;;16.20;88.90;;;;;;5017338;28;20033;-69
2022/06/25 09:43:47;;;;;;;4.50;1.60;;;16.20;88.60;;;;;;5012024;28;20030;-68
2022/06/25 09:46:13;;;;;;;12.45;2.50;;;16.20;88.10;;;;;;5012750;28;20034;-68
2022/06/25 09:48:41;;;;;;;8.10;2.05;;;16.30;88.60;;;;;;5011575;28;20057;-68
2022/06/25 09:51:20;;;;;;;5.50;2.58;;;16.30;87.60;;;;;;5012531;28;20022;-67
2022/06/25 09:53:51;;;;;;;6.30;2.08;;;16.30;87.40;;;;;;5012572;28;20034;-69
2022/06/25 09:56:29;;;;;;;9.88;2.42;;;16.40;87.20;;;;;;5013512;28;20465;-68
2022/06/25 09:58:56;;;;;;;12.18;2.17;;;16.50;87.10;;;;;;5013604;28;20377;-68
2022/06/25 10:01:28;;;;;;;8.90;2.10;;;16.50;87.00;;;;;;5014486;28;20054;-68
2022/06/25 10:03:56;;;;;;;5.15;2.38;;;16.50;86.60;;;;;;5018505;28;20434;-68
2022/06/25 10:06:24;;;;;;;12.15;2.30;;;16.50;86.30;;;;;;5017553;28;20025;-68
2022/06/25 10:08:56;;;;;;;8.20;2.38;;;16.50;86.60;;;;;;5022333;28;20017;-69
2022/06/25 10:11:25;;;;;;;13.10;3.25;;;16.60;85.80;;;;;;5014650;28;20022;-69
2022/06/25 10:13:53;;;;;;;9.18;2.13;;;16.70;85.70;;;;;;5010515;28;20029;-69
2022/06/25 10:16:21;;;;;;;8.80;2.92;;;16.70;85.40;;;;;;5020402;28;20021;-69
2022/06/25 10:18:49;;;;;;;14.85;2.67;;;16.70;85.10;;;;;;5020583;28;20056;-69
2022/06/25 10:21:17;;;;;;;5.85;1.77;;;16.80;84.70;;;;;;5010271;28;20022;-69
2022/06/25 10:23:48;;;;;;;8.18;1.70;;;16.80;84.40;;;;;;5013277;28;20042;-68
2022/06/25 10:26:15;;;;;;;6.00;1.70;;;16.90;84.20;;;;;;5016292;28;20053;-69
2022/06/25 10:28:42;;;;;;;8.55;1.90;;;16.90;83.80;;;;;;5010421;28;20439;-70
2022/06/25 10:31:15;;;;;;;10.15;2.28;;;16.90;83.50;;;;;;5012827;28;20058;-68
2022/06/25 10:34:05;;;;;;;10.35;2.42;;;17.00;83.20;;;;;;5011975;28;20030;-69
2022/06/25 10:36:47;;;;;;;8.43;2.00;;;17.00;82.90;;;;;;5015686;28;20667;-70
2022/06/25 10:39:23;;;;;;;9.50;2.15;;;17.10;82.80;;;;;;5011940;28;20488;-69
2022/06/25 10:45:15;;;;;;;13.13;3.42;;;17.10;82.00;;;;;;5012924;28;20100;-69
2022/06/25 10:47:57;;;;;;;12.75;2.13;;;17.20;82.00;;;;;;4976459;28;20038;-69
2022/06/25 10:50:23;;;;;;;6.78;1.50;;;17.20;81.80;;;;;;5009423;28;20056;-69
2022/06/25 10:53:05;;;;;;;7.55;2.17;;;17.20;81.50;;;;;;5016856;28;20067;-71
2022/06/25 10:55:38;;;;;;;12.38;2.50;;;17.30;81.20;;;;;;5017978;28;20032;-71
2022/06/25 10:58:28;;;;;;;8.00;1.83;;;17.40;81.10;;;;;;5015849;28;20022;-69
2022/06/25 11:01:02;;;;;;;11.15;3.00;;;17.40;81.20;;;;;;5017090;28;20602;-69
2022/06/25 11:03:30;;;;;;;15.68;2.53;;;17.50;81.50;;;;;;5019208;28;20105;-69
2022/06/25 11:06:22;;;;;;;8.52;2.15;;;17.60;81.30;;;;;;5014371;28;20024;-69
2022/06/25 11:08:50;;;;;;;9.15;3.47;;;17.60;81.00;;;;;;5014680;28;20041;-69
2022/06/25 11:11:25;;;;;;;14.93;2.28;;;17.60;80.80;;;;;;5017310;28;20064;-68
2022/06/25 11:13:52;;;;;;;11.00;2.40;;;17.70;80.50;;;;;;5011597;28;20104;-68
2022/06/25 11:16:19;;;;;;;11.32;1.95;;;17.80;80.30;;;;;;5015580;28;20417;-68
2022/06/25 11:18:47;;;;;;;13.15;2.95;;;17.80;80.10;;;;;;5015797;28;20040;-68
2022/06/25 11:21:42;;;;;;;8.40;1.75;;;17.80;80.20;;;;;;5014030;28;20030;-68
2022/06/25 11:24:10;;;;;;;12.95;2.70;;;17.90;80.20;;;;;;5013422;28;20057;-69
2022/06/25 11:29:29;;;;;;;14.90;2.47;;;18.00;79.70;;;;;;5012207;28;20057;-67
2022/06/25 11:31:57;;;;;;;8.18;2.65;;;18.00;79.60;;;;;;5015730;28;20044;-68
2022/06/25 11:34:25;;;;;;;8.77;1.95;;;18.00;79.50;;;;;;5017977;28;20037;-69
2022/06/25 11:36:56;;;;;;;12.68;2.65;;;18.00;79.10;;;;;;5009599;28;20026;-68
2022/06/25 11:39:22;;;;;;;13.23;2.83;;;18.10;79.10;;;;;;5018042;28;20101;-69
2022/06/25 11:41:51;;;;;;;23.00;11.77;;;18.10;78.70;;;;;;5013368;28;20022;-68
2022/06/25 11:44:18;;;;;;;23.50;9.77;;;18.20;78.60;;;;;;5016135;28;20584;-69
2022/06/25 11:46:45;;;;;;;15.35;6.97;;;18.20;78.50;;;;;;5012113;28;20018;-68
2022/06/25 11:49:12;;;;;;;16.20;5.07;;;18.20;78.40;;;;;;5016000;28;20033;-67
2022/06/25 11:51:48;;;;;;;9.35;3.75;;;18.30;78.40;;;;;;5013091;28;20032;-66
2022/06/25 11:54:16;;;;;;;8.98;2.80;;;18.30;78.30;;;;;;5013896;28;20045;-69
2022/06/25 11:56:54;;;;;;;14.07;2.60;;;18.30;78.10;;;;;;5014118;28;20393;-67
2022/06/25 11:59:31;;;;;;;9.40;2.38;;;18.40;78.00;;;;;;5017782;28;20404;-67
2022/06/25 12:02:04;;;;;;;8.60;2.05;;;18.40;77.80;;;;;;5013409;28;20037;-67
2022/06/25 12:04:32;;;;;;;5.60;1.88;;;18.40;77.60;;;;;;5010291;28;20024;-67
2022/06/25 12:07:00;;;;;;;18.95;4.25;;;18.40;77.10;;;;;;5013568;28;20583;-69
2022/06/25 14:22:20;;;;;;;12.52;4.18;;;17.90;75.90;;;;;;5057661;27;20456;-69
2022/06/25 14:27:31;;;;;;;12.57;3.10;;;18.10;76.40;;;;;;5047421;28;20403;-68
2022/06/25 14:29:57;;;;;;;9.98;3.13;;;18.10;75.60;;;;;;5048519;28;20149;-69
2022/06/25 14:32:23;;;;;;;17.88;3.10;;;18.10;75.30;;;;;;5045471;28;20052;-71
2022/06/25 14:34:50;;;;;;;10.13;2.70;;;18.10;75.10;;;;;;5047320;28;20025;-70
2022/06/25 14:42:46;;;;;;;46.63;4.30;;;18.00;75.70;;;;;;5046538;28;20036;-69
2022/06/25 14:45:12;;;;;;;11.13;2.90;;;18.00;75.80;;;;;;5043738;28;20171;-67
2022/06/25 14:47:39;;;;;;;15.25;3.60;;;18.00;76.00;;;;;;5045538;28;20021;-69
2022/06/25 14:50:07;;;;;;;8.52;3.15;;;18.00;76.30;;;;;;5046568;28;20040;-73
2022/06/25 14:52:34;;;;;;;12.05;2.70;;;18.00;76.60;;;;;;5052985;28;20021;-72
2022/06/25 14:55:01;;;;;;;11.32;3.92;;;18.00;76.80;;;;;;5047122;28;20032;-73
2022/06/25 14:57:27;;;;;;;7.82;2.70;;;18.00;76.60;;;;;;5043687;28;20031;-71
2022/06/25 14:59:54;;;;;;;16.77;2.45;;;18.00;76.70;;;;;;5047616;28;20032;-70
2022/06/25 15:02:20;;;;;;;19.40;7.03;;;18.00;76.80;;;;;;5046354;28;20017;-68
2022/06/25 15:04:47;;;;;;;12.20;4.25;;;17.90;77.00;;;;;;5042821;28;20025;-69
2022/06/25 15:07:13;;;;;;;13.68;4.43;;;17.90;77.30;;;;;;5044842;28;20027;-69
2022/06/25 15:09:40;;;;;;;12.25;5.07;;;17.90;77.40;;;;;;5044859;28;20108;-66
2022/06/25 15:12:06;;;;;;;13.82;4.70;;;17.80;77.50;;;;;;5045147;28;20025;-67
2022/06/25 15:14:33;;;;;;;11.15;4.47;;;17.80;77.60;;;;;;5049304;28;20020;-69
2022/06/25 15:16:59;;;;;;;13.10;5.05;;;17.80;77.70;;;;;;5040146;28;20021;-68
2022/06/25 15:19:26;;;;;;;15.52;5.70;;;17.80;77.80;;;;;;5042160;28;20066;-69
2022/06/25 15:21:52;;;;;;;12.23;4.15;;;17.80;78.00;;;;;;5029314;28;20561;-71
2022/06/25 15:24:19;;;;;;;13.93;4.28;;;17.80;78.30;;;;;;5032113;28;20027;-69
2022/06/25 15:26:45;;;;;;;8.52;4.30;;;17.70;78.30;;;;;;5032569;28;20025;-70
2022/06/25 15:29:14;;;;;;;14.35;3.90;;;17.70;78.40;;;;;;5035013;28;20037;-69
2022/06/25 15:31:40;;;;;;;21.52;3.38;;;17.60;78.30;;;;;;5033305;28;20021;-70
2022/06/25 15:34:07;;;;;;;13.52;3.40;;;17.60;78.40;;;;;;5039802;28;20093;-70
2022/06/25 15:36:34;;;;;;;17.02;4.45;;;17.60;78.40;;;;;;5028466;28;20498;-68
2022/06/25 15:39:00;;;;;;;30.65;4.05;;;17.60;78.30;;;;;;5032629;28;20041;-66
2022/06/25 15:41:27;;;;;;;20.20;4.80;;;17.50;78.20;;;;;;5034431;28;20055;-70
2022/06/25 15:43:53;;;;;;;13.32;5.05;;;17.50;78.30;;;;;;5035744;28;20024;-67
2022/06/25 15:46:20;;;;;;;19.30;5.35;;;17.50;78.70;;;;;;5028484;28;20030;-72
2022/06/25 15:48:46;;;;;;;16.67;6.00;;;17.50;79.10;;;;;;5031360;28;20057;-68
2022/06/25 15:51:13;;;;;;;18.25;7.25;;;17.40;79.20;;;;;;5033264;28;20374;-71
2022/06/25 15:53:39;;;;;;;19.23;6.03;;;17.40;79.20;;;;;;5032924;28;20523;-70
2022/06/25 15:56:06;;;;;;;11.18;5.88;;;17.40;79.10;;;;;;5035301;28;20029;-67
2022/06/25 16:01:17;;;;;;;19.15;6.70;;;17.30;79.10;;;;;;5037694;28;20091;-71
2022/06/25 16:03:44;;;;;;;13.90;6.53;;;17.20;79.10;;;;;;5025741;28;20021;-69
2022/06/25 16:06:11;;;;;;;16.83;6.40;;;17.20;79.40;;;;;;5030413;28;20025;-71
2022/06/25 16:08:37;;;;;;;23.05;7.05;;;17.20;80.00;;;;;;5033750;28;20059;-71
2022/06/25 16:13:49;;;;;;;19.00;6.57;;;17.20;80.50;;;;;;5031956;28;20032;-68
2022/06/25 16:16:16;;;;;;;10.75;5.80;;;17.20;80.80;;;;;;5030307;28;20962;-71
2022/06/25 16:18:42;;;;;;;19.50;8.25;;;17.20;81.10;;;;;;5030857;28;20095;-72
2022/06/25 16:21:09;;;;;;;15.45;8.52;;;17.20;81.40;;;;;;5031447;28;20050;-69
2022/06/25 16:23:35;;;;;;;21.45;9.32;;;17.20;81.50;;;;;;5028060;28;20461;-69
2022/06/25 16:26:02;;;;;;;20.40;8.45;;;17.20;81.60;;;;;;5032409;28;20468;-68
2022/06/25 16:28:28;;;;;;;25.23;10.43;;;17.10;81.80;;;;;;5033442;28;20426;-72
2022/06/25 16:30:55;;;;;;;18.98;11.40;;;17.10;81.80;;;;;;5030706;28;20117;-68
2022/06/25 16:33:21;;;;;;;21.52;13.05;;;17.20;81.80;;;;;;5036587;28;20024;-70
2022/06/25 16:35:48;;;;;;;31.20;16.63;;;17.10;81.60;;;;;;5032126;28;20110;-71
2022/06/25 16:38:14;;;;;;;30.33;14.63;;;17.00;81.40;;;;;;5028105;28;20627;-70
2022/06/25 16:40:41;;;;;;;24.83;13.73;;;17.00;81.50;;;;;;5025135;28;20025;-72
2022/06/25 16:43:07;;;;;;;27.25;14.75;;;17.00;81.60;;;;;;5024938;28;20033;-66
2022/06/25 16:45:34;;;;;;;25.60;13.80;;;16.90;81.60;;;;;;5022307;28;20014;-69
2022/06/25 16:48:01;;;;;;;25.95;12.93;;;16.90;81.80;;;;;;5028283;28;20096;-67
2022/06/25 16:50:27;;;;;;;20.38;12.07;;;16.90;81.90;;;;;;5022913;28;20029;-68
2022/06/25 16:52:54;;;;;;;32.60;12.32;;;16.90;81.90;;;;;;5025635;28;20487;-68
2022/06/25 16:55:20;;;;;;;26.65;12.48;;;16.80;81.80;;;;;;5023299;28;20021;-67
2022/06/25 16:57:47;;;;;;;25.40;12.25;;;16.80;82.10;;;;;;5027989;28;20026;-67
2022/06/25 17:00:13;;;;;;;28.58;12.23;;;16.80;82.30;;;;;;5030704;28;20096;-69
2022/06/25 17:02:41;;;;;;;33.95;13.95;;;16.80;82.50;;;;;;5033818;28;20022;-70
2022/06/25 17:05:07;;;;;;;31.67;20.08;;;16.80;82.80;;;;;;5034876;28;20030;-72
2022/06/25 17:07:34;;;;;;;30.77;18.58;;;16.80;83.10;;;;;;5026402;28;20369;-71
2022/06/25 17:10:00;;;;;;;31.70;18.77;;;16.80;83.20;;;;;;5033582;28;20508;-68
2022/06/25 17:12:35;;;;;;;34.42;18.05;;;16.80;83.30;;;;;;5068503;28;20387;-66
2022/06/25 17:15:04;;;;;;;27.92;17.83;;;16.80;83.40;;;;;;5033196;28;20501;-67
2022/06/25 17:17:30;;;;;;;31.50;17.33;;;16.80;83.50;;;;;;5030740;28;20428;-67
2022/06/25 17:19:57;;;;;;;32.67;17.25;;;16.80;83.70;;;;;;5030549;28;20017;-69
2022/06/25 17:22:23;;;;;;;26.13;13.68;;;16.80;83.70;;;;;;5032267;28;20039;-68
2022/06/25 17:24:50;;;;;;;26.27;15.07;;;16.80;83.90;;;;;;5031464;28;20013;-71
2022/06/25 17:27:16;;;;;;;23.17;13.35;;;16.80;83.90;;;;;;5031627;28;20021;-69
2022/06/25 17:29:43;;;;;;;21.85;12.45;;;16.70;84.00;;;;;;5057186;28;20038;-71
2022/06/25 17:32:09;;;;;;;25.67;14.32;;;16.70;84.10;;;;;;5024601;28;20033;-69
2022/06/25 17:34:36;;;;;;;24.02;11.68;;;16.70;84.20;;;;;;5028333;28;20021;-69
2022/06/25 17:37:02;;;;;;;21.67;10.55;;;16.70;84.20;;;;;;5026349;28;20030;-75